Arcen, Netherlands
Current Conditions -  °F | °C
As of 2:20 PM on Friday 19 Dec 2014 (Local Time) from EDLV Reporting Station
Scattered Clouds Scattered Clouds  
Wind Chill: 42°   Ceiling: Unl
Heat Index: 46°   Visibility: 6mi
Dew Point: 46°   Wind: 9mph
Humidity: 100%   Direction: 280°W
Pressure: 29.85"   Gusts: NA
Location:  51.48°N, 6.18°E
Report Text: EDLV 191320Z 28008KT 9999 FEW010 SCT033 08/08 Q1011
Loading
Personal Weather Stations






























Interactive Weather Map New forecast layout! Learn more

10-Day Weather Forecast

Advertisements
Track Severe Weather on mobile